createdAt,value
2022-12-15T00:01:22.614Z,11.85
2022-12-15T00:04:07.516Z,10.88
2022-12-15T00:06:52.674Z,10.48
2022-12-15T00:09:37.906Z,10.73
2022-12-15T00:12:22.865Z,11.05
2022-12-15T00:15:07.844Z,10.80
2022-12-15T00:17:52.630Z,11.05
2022-12-15T00:20:37.324Z,10.43
2022-12-15T00:23:26.789Z,10.35
2022-12-15T00:26:12.510Z,9.82
2022-12-15T00:28:57.821Z,9.80
2022-12-15T00:31:42.645Z,9.93
2022-12-15T00:34:27.742Z,9.50
2022-12-15T00:37:13.056Z,9.38
2022-12-15T00:39:40.249Z,10.55
2022-12-15T00:42:07.458Z,8.75
2022-12-15T00:44:33.826Z,9.20
2022-12-15T00:47:00.396Z,9.30
2022-12-15T00:49:46.688Z,10.43
2022-12-15T00:52:31.971Z,8.95
2022-12-15T00:55:17.030Z,9.07
2022-12-15T00:58:02.222Z,9.52
2022-12-15T01:00:47.597Z,9.02
2022-12-15T01:03:37.856Z,9.20
2022-12-15T01:06:24.022Z,9.90
2022-12-15T01:09:08.877Z,10.05
2022-12-15T01:11:53.796Z,9.63
2022-12-15T01:14:38.902Z,9.38
2022-12-15T01:17:23.710Z,9.35
2022-12-15T01:20:08.714Z,9.43
2022-12-15T01:22:36.418Z,9.35
2022-12-15T01:25:02.982Z,8.25
2022-12-15T01:27:29.355Z,9.50
2022-12-15T01:29:55.701Z,8.85
2022-12-15T01:32:22.040Z,8.60
2022-12-15T01:34:48.356Z,9.55
2022-12-15T01:37:14.934Z,8.75
2022-12-15T01:40:00.012Z,8.38
2022-12-15T01:42:26.366Z,9.25
2022-12-15T01:44:53.343Z,10.00
2022-12-15T01:47:22.726Z,11.15
2022-12-15T01:49:49.229Z,8.75
2022-12-15T01:52:16.557Z,8.55
2022-12-15T01:54:46.134Z,7.88
2022-12-15T01:57:18.504Z,9.85
2022-12-15T01:59:48.757Z,8.82
2022-12-15T02:02:15.381Z,8.13
2022-12-15T02:04:41.853Z,9.05
2022-12-15T02:07:12.780Z,8.55
2022-12-15T02:09:39.199Z,8.68
2022-12-15T02:12:11.554Z,7.90
2022-12-15T02:14:44.625Z,8.82
2022-12-15T02:17:16.099Z,14.05
2022-12-15T02:19:56.605Z,13.32
2022-12-15T02:22:35.133Z,11.55
2022-12-15T02:25:07.626Z,11.68
2022-12-15T02:27:37.073Z,14.98
2022-12-15T02:30:06.421Z,15.50
2022-12-15T02:32:47.857Z,8.73
2022-12-15T02:35:16.832Z,10.10
2022-12-15T02:37:44.692Z,10.70
2022-12-15T02:40:11.586Z,9.75
2022-12-15T02:42:49.771Z,11.60
2022-12-15T02:45:19.923Z,12.15
2022-12-15T02:48:04.962Z,9.93
2022-12-15T02:50:49.616Z,10.60
2022-12-15T02:53:15.960Z,11.80
2022-12-15T02:55:46.614Z,10.93
2022-12-15T02:58:35.621Z,10.20
2022-12-15T03:01:14.924Z,11.68
2022-12-15T03:03:42.300Z,10.80
2022-12-15T03:06:08.977Z,13.57
2022-12-15T03:08:35.385Z,9.82
2022-12-15T03:11:01.941Z,10.20
2022-12-15T03:13:28.702Z,11.18
2022-12-15T03:15:55.252Z,10.52
2022-12-15T03:18:21.740Z,10.50
2022-12-15T03:20:49.847Z,8.93
2022-12-15T03:23:16.269Z,8.50
2022-12-15T03:25:44.529Z,10.25
2022-12-15T03:28:10.943Z,10.80
2022-12-15T03:30:37.277Z,10.63
2022-12-15T03:33:03.829Z,10.90
2022-12-15T03:35:30.446Z,11.05
2022-12-15T03:37:56.838Z,9.30
2022-12-15T03:40:23.148Z,9.90
2022-12-15T03:42:49.600Z,10.82
2022-12-15T03:45:17.261Z,9.93
2022-12-15T03:50:10.500Z,9.68
2022-12-15T03:52:36.826Z,11.65
2022-12-15T03:55:03.974Z,8.90
2022-12-15T03:57:30.421Z,11.00
2022-12-15T03:59:56.825Z,9.90
2022-12-15T04:02:23.313Z,9.68
2022-12-15T04:04:49.833Z,9.38
2022-12-15T04:07:16.211Z,9.50
2022-12-15T04:09:42.537Z,9.57
2022-12-15T04:12:10.998Z,9.50
2022-12-15T04:14:42.406Z,10.02
2022-12-15T04:17:09.933Z,9.55
2022-12-15T04:19:55.161Z,9.63
2022-12-15T04:22:21.473Z,9.07
2022-12-15T04:25:06.554Z,9.85
2022-12-15T04:27:51.606Z,9.35
2022-12-15T04:30:36.671Z,8.88
2022-12-15T04:33:26.332Z,9.98
2022-12-15T04:36:14.402Z,8.85
2022-12-15T04:38:59.278Z,9.05
2022-12-15T04:41:43.933Z,9.85
2022-12-15T04:44:29.257Z,8.52
2022-12-15T04:47:14.359Z,10.30
2022-12-15T04:49:59.512Z,8.55
2022-12-15T04:52:44.546Z,9.85
2022-12-15T04:55:29.482Z,9.60
2022-12-15T04:58:14.313Z,10.38
2022-12-15T05:00:59.360Z,8.50
2022-12-15T05:03:44.395Z,9.85
2022-12-15T05:06:29.350Z,10.15
2022-12-15T05:09:14.139Z,8.45
2022-12-15T05:11:59.298Z,10.98
2022-12-15T05:14:44.253Z,10.50
2022-12-15T05:17:29.459Z,9.43
2022-12-15T05:20:14.808Z,9.48
2022-12-15T05:22:59.862Z,9.05
2022-12-15T05:25:45.014Z,10.00
2022-12-15T05:28:29.853Z,10.07
2022-12-15T05:31:15.014Z,9.65
2022-12-15T05:33:41.475Z,9.77
2022-12-15T05:36:08.099Z,8.80
2022-12-15T05:38:34.455Z,10.30
2022-12-15T05:41:01.028Z,9.30
2022-12-15T05:43:28.424Z,9.20
2022-12-15T05:45:55.153Z,9.82
2022-12-15T05:48:21.600Z,10.15
2022-12-15T05:50:48.049Z,10.52
2022-12-15T05:53:16.241Z,11.10
2022-12-15T05:55:42.575Z,8.70
2022-12-15T05:58:08.972Z,10.68
2022-12-15T06:00:35.324Z,9.60
2022-12-15T06:03:02.725Z,9.48
2022-12-15T06:05:29.159Z,9.95
2022-12-15T06:07:56.152Z,10.20
2022-12-15T06:10:22.524Z,9.52
2022-12-15T06:12:48.840Z,10.13
2022-12-15T06:15:15.214Z,10.73
2022-12-15T06:17:41.563Z,9.45
2022-12-15T06:20:08.067Z,9.38
2022-12-15T06:22:34.441Z,9.20
2022-12-15T06:25:00.816Z,10.18
2022-12-15T06:27:27.160Z,9.95
2022-12-15T06:29:53.590Z,10.43
2022-12-15T06:32:21.310Z,9.05
2022-12-15T06:39:40.315Z,10.05
2022-12-15T06:42:06.673Z,9.98
2022-12-15T06:44:33.032Z,10.15
2022-12-15T06:46:59.419Z,10.07
2022-12-15T06:49:25.897Z,9.25
2022-12-15T06:51:52.315Z,10.25
2022-12-15T06:54:18.884Z,9.55
2022-12-15T06:56:45.236Z,8.82
2022-12-15T06:59:16.169Z,9.93
2022-12-15T07:01:43.072Z,9.13
2022-12-15T07:04:11.259Z,10.38
2022-12-15T07:06:38.940Z,11.02
2022-12-15T07:09:07.485Z,11.02
2022-12-15T07:11:34.042Z,10.73
2022-12-15T07:14:00.393Z,10.10
2022-12-15T07:16:27.035Z,10.90
2022-12-15T07:18:53.469Z,13.00
2022-12-15T07:21:19.848Z,11.35
2022-12-15T07:23:54.616Z,11.80
2022-12-15T07:26:22.823Z,12.50
2022-12-15T07:28:49.266Z,11.57
2022-12-15T07:31:15.909Z,10.95
2022-12-15T07:33:42.321Z,12.25
2022-12-15T07:36:08.894Z,13.05
2022-12-15T07:38:35.922Z,12.82
2022-12-15T07:41:03.529Z,12.20
2022-12-15T07:43:31.382Z,11.73
2022-12-15T07:45:58.311Z,11.30
2022-12-15T07:48:25.058Z,10.82
2022-12-15T07:51:02.757Z,11.13
2022-12-15T07:53:34.793Z,10.00
2022-12-15T07:56:10.115Z,10.45
2022-12-15T07:58:37.466Z,10.23
2022-12-15T08:01:08.235Z,10.65
2022-12-15T08:03:35.680Z,11.90
2022-12-15T08:06:11.140Z,10.68
2022-12-15T08:08:37.869Z,10.70
2022-12-15T08:11:05.199Z,9.73
2022-12-15T08:14:01.303Z,10.35
2022-12-15T08:16:19.713Z,10.63
2022-12-15T08:18:46.239Z,9.68
2022-12-15T08:21:12.771Z,10.38
2022-12-15T08:23:40.292Z,10.65
2022-12-15T08:26:11.841Z,10.95
2022-12-15T08:28:39.345Z,12.15
2022-12-15T08:31:09.918Z,10.88
2022-12-15T08:33:36.379Z,11.60
2022-12-15T08:36:04.354Z,10.73
2022-12-15T08:38:31.085Z,11.82
2022-12-15T08:40:57.448Z,12.13
2022-12-15T08:43:23.930Z,10.93
2022-12-15T08:45:50.373Z,11.70
2022-12-15T08:48:16.857Z,13.20
2022-12-15T08:50:45.804Z,14.43
2022-12-15T08:53:30.693Z,11.57
2022-12-15T08:56:24.117Z,12.13
2022-12-15T08:58:54.726Z,12.85
2022-12-15T09:01:23.997Z,11.95
2022-12-15T09:03:54.142Z,12.38
2022-12-15T09:06:26.117Z,11.68
2022-12-15T09:08:56.523Z,11.50
2022-12-15T09:11:23.928Z,12.55
2022-12-15T09:13:50.420Z,13.63
2022-12-15T09:16:17.919Z,13.02
2022-12-15T09:18:46.493Z,11.32
2022-12-15T09:21:13.340Z,10.93
2022-12-15T09:23:39.965Z,11.55
2022-12-15T09:26:07.605Z,10.80
2022-12-15T09:31:28.165Z,11.30
2022-12-15T09:33:55.299Z,12.88
2022-12-15T09:36:22.362Z,11.00
2022-12-15T09:38:48.950Z,12.93
2022-12-15T09:41:15.365Z,10.25
2022-12-15T09:43:47.678Z,14.07
2022-12-15T09:46:24.666Z,11.88
2022-12-15T09:48:51.565Z,11.02
2022-12-15T09:51:18.531Z,10.85
2022-12-15T09:53:54.601Z,11.05
2022-12-15T09:56:25.962Z,10.07
2022-12-15T09:58:59.854Z,10.25
2022-12-15T10:01:30.284Z,10.52
2022-12-15T10:04:06.764Z,10.55
2022-12-15T10:06:40.206Z,11.45
2022-12-15T10:09:17.360Z,10.50
2022-12-15T10:11:43.856Z,10.85
2022-12-15T10:14:29.157Z,10.15
2022-12-15T10:17:04.448Z,11.30
2022-12-15T10:19:33.793Z,11.80
2022-12-15T10:22:00.352Z,11.93
2022-12-15T10:25:07.918Z,10.27
2022-12-15T10:27:21.755Z,11.60
2022-12-15T10:30:01.887Z,9.38
2022-12-15T10:32:57.784Z,10.13
2022-12-15T10:35:27.925Z,9.48
2022-12-15T10:38:04.777Z,9.82
2022-12-15T10:40:51.902Z,10.15
2022-12-15T10:43:47.560Z,10.52
2022-12-15T10:46:18.634Z,10.10
2022-12-15T10:48:48.776Z,10.50
2022-12-15T10:51:31.213Z,9.82
2022-12-15T10:54:00.613Z,8.93
2022-12-15T10:56:33.229Z,9.95
2022-12-15T10:59:20.303Z,9.95
2022-12-15T11:01:46.762Z,10.93
2022-12-15T11:04:27.334Z,9.02
2022-12-15T11:07:01.824Z,9.02
2022-12-15T11:09:35.403Z,9.82
2022-12-15T11:12:21.241Z,9.05
2022-12-15T11:17:15.513Z,11.02
2022-12-15T11:19:44.577Z,10.15
2022-12-15T11:22:29.915Z,10.27
2022-12-15T11:24:59.815Z,9.73
2022-12-15T11:27:26.180Z,10.38
2022-12-15T11:29:52.710Z,11.35
2022-12-15T11:32:24.042Z,9.95
2022-12-15T11:34:50.753Z,10.10
2022-12-15T11:37:36.286Z,9.95
2022-12-15T11:40:21.821Z,8.63
2022-12-15T11:42:57.310Z,9.23
2022-12-15T11:45:26.799Z,9.43
2022-12-15T11:47:57.198Z,9.23
2022-12-15T11:50:42.633Z,9.15
2022-12-15T11:53:18.255Z,9.88
2022-12-15T11:55:44.630Z,9.88
2022-12-15T11:58:16.978Z,9.23
2022-12-15T12:00:47.088Z,8.88
2022-12-15T12:03:23.945Z,10.98
2022-12-15T12:05:53.071Z,9.93
2022-12-15T12:08:28.901Z,10.10
2022-12-15T12:10:55.642Z,9.35
2022-12-15T12:13:41.302Z,10.20
2022-12-15T12:16:19.785Z,10.73
2022-12-15T12:18:51.239Z,9.82
2022-12-15T12:21:20.810Z,10.55
2022-12-15T12:23:53.717Z,10.45
2022-12-15T12:26:20.262Z,10.80
2022-12-15T12:29:04.754Z,11.48
2022-12-15T12:32:04.227Z,11.20
2022-12-15T12:37:39.856Z,10.52
2022-12-15T12:40:26.712Z,10.13
2022-12-15T12:42:57.018Z,11.30
2022-12-15T12:45:26.453Z,10.48
2022-12-15T12:47:54.915Z,10.93
2022-12-15T12:50:23.591Z,13.02
2022-12-15T12:52:51.863Z,9.80
2022-12-15T12:55:21.073Z,11.45
2022-12-15T12:57:47.576Z,10.23
2022-12-15T13:00:18.599Z,12.57
2022-12-15T13:03:08.115Z,12.35
2022-12-15T13:05:37.129Z,12.82
2022-12-15T13:08:03.433Z,11.68
2022-12-15T13:10:29.951Z,10.30
2022-12-15T13:12:59.602Z,12.10
2022-12-15T13:15:29.050Z,14.02
2022-12-15T13:17:57.894Z,10.98
2022-12-15T13:20:29.862Z,11.95
2022-12-15T13:22:56.962Z,11.48
2022-12-15T13:25:37.421Z,10.48
2022-12-15T13:28:22.363Z,12.43
2022-12-15T13:31:07.695Z,10.80
2022-12-15T13:33:34.546Z,11.13
2022-12-15T13:36:01.285Z,11.75
2022-12-15T13:38:47.601Z,11.90
2022-12-15T13:41:23.798Z,11.07
2022-12-15T13:43:51.321Z,10.75
2022-12-15T13:46:24.289Z,12.45
2022-12-15T13:49:04.064Z,10.65
2022-12-15T13:51:30.580Z,11.02
2022-12-15T13:54:11.786Z,10.98
2022-12-15T13:56:56.810Z,10.57
2022-12-15T13:59:28.342Z,10.77
2022-12-15T14:01:54.864Z,12.90
2022-12-15T14:04:22.060Z,9.82
2022-12-15T14:06:56.098Z,10.10
2022-12-15T14:09:25.362Z,11.65
2022-12-15T14:14:43.482Z,12.10
2022-12-15T14:17:13.555Z,12.35
2022-12-15T14:19:41.072Z,11.48
2022-12-15T14:24:39.007Z,10.77
2022-12-15T14:27:06.144Z,11.00
2022-12-15T14:29:32.576Z,10.45
2022-12-15T14:32:00.373Z,11.25
2022-12-15T14:34:35.728Z,11.00
2022-12-15T14:37:05.600Z,10.80
2022-12-15T14:39:43.539Z,12.02
2022-12-15T14:42:18.482Z,11.32
2022-12-15T14:44:50.001Z,15.15
2022-12-15T14:47:29.118Z,11.57
2022-12-15T14:49:56.729Z,13.07
2022-12-15T14:52:29.026Z,11.85
2022-12-15T14:54:57.558Z,10.93
2022-12-15T14:57:25.762Z,11.65
2022-12-15T14:59:53.044Z,12.57
2022-12-15T15:02:20.018Z,11.23
2022-12-15T15:03:04.934Z,9.73
2022-12-15T15:03:16.376Z,10.48
2022-12-15T15:04:59.774Z,12.35
2022-12-15T15:09:52.890Z,12.07
2022-12-15T15:12:20.219Z,12.55
2022-12-15T15:14:54.535Z,11.95
2022-12-15T15:17:23.970Z,11.05
2022-12-15T15:19:53.961Z,12.57
2022-12-15T15:22:25.588Z,10.35
2022-12-15T15:24:52.349Z,11.23
2022-12-15T15:27:31.108Z,12.68
2022-12-15T15:30:17.811Z,14.23
2022-12-15T15:32:51.480Z,12.32
2022-12-15T15:35:19.003Z,12.00
2022-12-15T15:40:13.351Z,13.38
2022-12-15T15:42:39.899Z,13.55
2022-12-15T15:45:10.382Z,14.07
2022-12-15T15:47:36.855Z,12.13
2022-12-15T15:50:03.227Z,12.48
2022-12-15T15:52:31.838Z,12.77
2022-12-15T15:54:58.674Z,13.27
2022-12-15T15:57:25.104Z,14.18
2022-12-15T15:59:51.576Z,12.73
2022-12-15T16:02:18.105Z,13.90
2022-12-15T16:04:44.731Z,12.95
2022-12-15T16:07:15.671Z,14.27
2022-12-15T16:09:42.308Z,12.88
2022-12-15T16:12:20.569Z,15.23
2022-12-15T16:14:46.926Z,15.27
2022-12-15T16:17:14.362Z,13.48
2022-12-15T16:19:40.683Z,13.70
2022-12-15T16:22:09.498Z,13.15
2022-12-15T16:24:35.856Z,14.43
2022-12-15T16:27:02.548Z,15.13
2022-12-15T16:29:28.871Z,14.48
2022-12-15T16:31:55.541Z,14.50
2022-12-15T16:34:24.571Z,15.80
2022-12-15T16:36:50.892Z,14.70
2022-12-15T16:39:33.637Z,14.35
2022-12-15T16:42:00.015Z,16.77
2022-12-15T16:44:27.294Z,15.10
2022-12-15T16:46:53.659Z,14.65
2022-12-15T16:49:20.132Z,13.77
2022-12-15T16:51:47.880Z,13.82
2022-12-15T16:54:16.656Z,14.80
2022-12-15T16:56:43.103Z,14.00
2022-12-15T16:59:35.971Z,13.60
2022-12-15T17:02:16.245Z,12.88
2022-12-15T17:04:42.675Z,15.13
2022-12-15T17:07:09.354Z,13.02
2022-12-15T17:09:38.020Z,13.75
2022-12-15T17:12:04.536Z,15.25
2022-12-15T17:14:30.845Z,13.70
2022-12-15T17:16:57.166Z,12.90
2022-12-15T17:19:23.489Z,14.02
2022-12-15T17:21:52.470Z,14.50
2022-12-15T17:24:20.343Z,15.88
2022-12-15T17:26:47.024Z,13.82
2022-12-15T17:29:15.351Z,15.32
2022-12-15T17:31:41.902Z,14.10
2022-12-15T17:34:22.596Z,13.23
2022-12-15T17:36:48.921Z,12.95
2022-12-15T17:39:15.443Z,16.55
2022-12-15T17:41:59.379Z,13.85
2022-12-15T17:44:33.806Z,14.52
2022-12-15T17:47:02.360Z,13.63
2022-12-15T17:49:34.735Z,15.02
2022-12-15T17:54:29.783Z,14.35
2022-12-15T17:56:56.314Z,14.10
2022-12-15T17:59:22.765Z,13.20
2022-12-15T18:01:49.366Z,14.18
2022-12-15T18:04:15.823Z,14.07
2022-12-15T18:06:43.392Z,12.77
2022-12-15T18:09:14.429Z,13.73
2022-12-15T18:11:40.888Z,14.13
2022-12-15T18:14:14.472Z,13.27
2022-12-15T18:16:41.254Z,13.80
2022-12-15T18:19:08.206Z,13.90
2022-12-15T18:21:34.653Z,15.00
2022-12-15T18:24:01.274Z,13.38
2022-12-15T18:26:27.871Z,13.60
2022-12-15T18:28:54.261Z,15.35
2022-12-15T18:31:20.735Z,11.77
2022-12-15T18:33:47.394Z,13.05
2022-12-15T18:36:13.886Z,14.82
2022-12-15T18:38:40.266Z,14.02
2022-12-15T18:41:09.768Z,19.80
2022-12-15T18:43:36.182Z,13.38
2022-12-15T18:46:02.697Z,13.73
2022-12-15T18:48:28.983Z,13.00
2022-12-15T18:50:57.562Z,14.95
2022-12-15T18:53:29.424Z,13.18
2022-12-15T18:55:56.321Z,13.25
2022-12-15T18:58:27.355Z,12.98
2022-12-15T19:00:54.990Z,13.63
2022-12-15T19:03:22.044Z,14.90
2022-12-15T19:05:49.212Z,13.00
2022-12-15T19:08:15.654Z,12.52
2022-12-15T19:10:50.242Z,12.95
2022-12-15T19:13:17.423Z,15.27
2022-12-15T19:15:44.248Z,13.98
2022-12-15T19:18:36.525Z,13.80
2022-12-15T19:21:36.483Z,15.70
2022-12-15T19:24:03.746Z,13.63
2022-12-15T19:26:30.146Z,13.40
2022-12-15T19:28:56.632Z,13.93
2022-12-15T19:31:23.021Z,13.10
2022-12-15T19:33:49.394Z,13.27
2022-12-15T19:36:18.271Z,13.55
2022-12-15T19:38:45.423Z,13.27
2022-12-15T19:41:15.874Z,12.77
2022-12-15T19:43:42.803Z,13.60
2022-12-15T19:46:17.200Z,12.90
2022-12-15T19:48:43.576Z,13.88
2022-12-15T19:51:14.853Z,13.50
2022-12-15T19:53:41.195Z,12.13
2022-12-15T19:56:07.781Z,13.02
2022-12-15T19:58:35.033Z,12.40
2022-12-15T20:01:05.278Z,12.98
2022-12-15T20:03:32.310Z,13.32
2022-12-15T20:05:59.876Z,12.93
2022-12-15T20:08:36.699Z,13.88
2022-12-15T20:11:03.578Z,12.85
2022-12-15T20:13:30.791Z,15.10
2022-12-15T20:15:58.089Z,11.93
2022-12-15T20:18:24.450Z,13.60
2022-12-15T20:20:50.974Z,12.65
2022-12-15T20:23:19.394Z,13.32
2022-12-15T20:25:45.821Z,14.35
2022-12-15T20:28:30.486Z,12.40
2022-12-15T20:30:57.171Z,12.63
2022-12-15T20:33:23.889Z,11.85
2022-12-15T20:35:50.352Z,13.48
2022-12-15T20:38:23.438Z,13.73
2022-12-15T20:40:49.868Z,11.60
2022-12-15T20:43:18.274Z,14.02
2022-12-15T20:45:46.243Z,13.30
2022-12-15T20:48:16.345Z,12.00
2022-12-15T20:50:48.854Z,12.77
2022-12-15T20:53:16.726Z,12.65
2022-12-15T20:55:43.430Z,12.90
2022-12-15T20:58:10.327Z,11.43
2022-12-15T21:00:37.702Z,11.82
2022-12-15T21:03:16.466Z,11.93
2022-12-15T21:05:42.925Z,12.45
2022-12-15T21:08:14.486Z,12.15
2022-12-15T21:10:40.828Z,11.68
2022-12-15T21:13:13.351Z,11.57
2022-12-15T21:15:39.728Z,12.30
2022-12-15T21:18:46.603Z,12.77
2022-12-15T21:20:57.853Z,11.70
2022-12-15T21:23:29.251Z,12.45
2022-12-15T21:25:56.652Z,12.18
2022-12-15T21:28:23.465Z,12.27
2022-12-15T21:30:50.128Z,11.93
2022-12-15T21:33:16.670Z,12.38
2022-12-15T21:35:46.075Z,12.55
2022-12-15T21:38:26.458Z,11.65
2022-12-15T21:40:59.179Z,11.07
2022-12-15T21:43:27.245Z,12.15
2022-12-15T21:45:53.735Z,11.90
2022-12-15T21:48:40.058Z,12.30
2022-12-15T21:51:08.570Z,11.43
2022-12-15T21:53:34.883Z,12.02
2022-12-15T21:56:01.470Z,10.48
2022-12-15T21:58:28.005Z,10.05
2022-12-15T22:00:54.417Z,11.35
2022-12-15T22:03:20.823Z,10.57
2022-12-15T22:05:47.222Z,13.25
2022-12-15T22:08:18.123Z,11.40
2022-12-15T22:10:45.689Z,12.52
2022-12-15T22:13:20.491Z,11.50
2022-12-15T22:15:47.461Z,13.65
2022-12-15T22:18:19.549Z,14.43
2022-12-15T22:20:48.199Z,12.07
2022-12-15T22:23:15.665Z,13.95
2022-12-15T22:28:14.963Z,13.93
2022-12-15T22:30:41.364Z,13.70
2022-12-15T22:33:17.572Z,13.68
2022-12-15T22:35:46.834Z,13.63
2022-12-15T22:38:13.153Z,15.68
2022-12-15T22:40:39.630Z,13.82
2022-12-15T22:43:14.112Z,13.18
2022-12-15T22:45:42.733Z,12.27
2022-12-15T22:48:12.885Z,13.65
2022-12-15T22:50:39.384Z,13.57
2022-12-15T22:53:11.948Z,12.80
2022-12-15T22:55:38.401Z,13.23
2022-12-15T22:58:07.072Z,14.15
2022-12-15T23:00:33.486Z,16.25
2022-12-15T23:03:00.275Z,14.18
2022-12-15T23:05:26.855Z,14.82
2022-12-15T23:07:53.242Z,13.93
2022-12-15T23:10:40.048Z,13.20
2022-12-15T23:13:06.554Z,13.07
2022-12-15T23:15:52.064Z,13.80
2022-12-15T23:18:18.438Z,13.23
2022-12-15T23:20:45.365Z,13.95
2022-12-15T23:23:11.798Z,15.63
2022-12-15T23:25:38.299Z,13.88
2022-12-15T23:28:05.306Z,13.10
2022-12-15T23:30:31.731Z,13.82
2022-12-15T23:32:58.069Z,12.85
2022-12-15T23:35:24.440Z,14.38
2022-12-15T23:37:50.919Z,13.60
2022-12-15T23:40:21.886Z,14.45
2022-12-15T23:42:48.934Z,13.35
2022-12-15T23:45:15.373Z,14.23
2022-12-15T23:47:41.779Z,14.13
2022-12-15T23:50:08.303Z,14.82
2022-12-15T23:52:34.602Z,13.40
2022-12-15T23:55:00.959Z,13.43
2022-12-15T23:57:28.544Z,13.98
2022-12-15T23:59:54.889Z,14.52
